createdAt,value
2022-11-27T00:01:30.049Z,100958.72
2022-11-27T00:16:32.093Z,100968.63
2022-11-27T00:31:35.311Z,100961.84
2022-11-27T00:46:37.238Z,100963.72
2022-11-27T01:01:41.662Z,100954.25
2022-11-27T01:16:44.388Z,100960.00
2022-11-27T01:31:46.362Z,100952.03
2022-11-27T01:46:50.753Z,69644.63
2022-11-27T02:01:52.684Z,69644.63
2022-11-27T02:17:06.555Z,69644.63
2022-11-27T02:32:38.196Z,69644.63
2022-11-27T02:47:43.221Z,69644.63
2022-11-27T03:03:01.580Z,69644.63
2022-11-27T03:18:43.942Z,69644.63
2022-11-27T03:33:46.556Z,69644.63
2022-11-27T03:49:08.940Z,69644.63
2022-11-27T04:04:11.307Z,69644.63
2022-11-27T04:19:13.376Z,69644.63
2022-11-27T04:34:15.183Z,69644.63
2022-11-27T04:49:17.319Z,69644.63
2022-11-27T05:04:19.357Z,69644.63
2022-11-27T05:19:23.120Z,69644.63
2022-11-27T05:34:24.978Z,69644.63
2022-11-27T05:49:27.043Z,69644.63
2022-11-27T06:04:51.084Z,69644.63
2022-11-27T06:19:53.183Z,69644.63
2022-11-27T06:34:54.946Z,69644.63
2022-11-27T06:49:56.730Z,69644.63
2022-11-27T07:04:58.500Z,69644.63
2022-11-27T07:20:01.020Z,69644.63
2022-11-27T07:35:02.803Z,69644.63
2022-11-27T07:50:07.507Z,69644.63
2022-11-27T08:05:13.042Z,69644.63
2022-11-27T08:20:15.691Z,69644.63
2022-11-27T08:35:17.741Z,69644.63
2022-11-27T08:50:19.723Z,69644.63
2022-11-27T09:05:21.754Z,69644.63
2022-11-27T09:20:23.832Z,69644.63
2022-11-27T09:35:25.711Z,69644.63
2022-11-27T09:50:42.713Z,69644.63
2022-11-27T10:06:09.263Z,69644.63
2022-11-27T10:21:23.316Z,69644.63
2022-11-27T10:36:41.696Z,69644.63
2022-11-27T10:51:43.569Z,69644.63
2022-11-27T11:06:50.287Z,69644.63
2022-11-27T11:21:52.989Z,69644.63
2022-11-27T11:37:18.629Z,69644.63
2022-11-27T11:52:38.392Z,69644.63
2022-11-27T12:08:15.625Z,69644.63
2022-11-27T12:23:42.417Z,69644.63
2022-11-27T12:39:02.492Z,69644.63
2022-11-27T12:54:12.104Z,69644.63
2022-11-27T13:09:22.925Z,69644.63
2022-11-27T13:24:27.539Z,69644.63
2022-11-27T13:39:34.739Z,69644.63
2022-11-27T13:54:37.013Z,69644.63
2022-11-27T14:09:50.037Z,69644.63
2022-11-27T14:24:56.243Z,69644.63
2022-11-27T14:39:58.045Z,69644.63
2022-11-27T14:55:01.769Z,69644.63
2022-11-27T15:10:17.034Z,69644.63
2022-11-27T15:25:47.272Z,69644.63
2022-11-27T15:40:59.345Z,69644.63
2022-11-27T15:56:01.188Z,69644.63
2022-11-27T16:11:06.064Z,69644.63
2022-11-27T16:26:08.937Z,69644.63
2022-11-27T16:41:13.397Z,69644.63
2022-11-27T16:56:17.641Z,69644.63
2022-11-27T17:11:22.185Z,69644.63
2022-11-27T17:26:27.226Z,69644.63
2022-11-27T17:41:29.450Z,69644.63
2022-11-27T17:56:31.720Z,69644.63
2022-11-27T18:11:36.272Z,69644.63
2022-11-27T18:27:07.200Z,69644.63
2022-11-27T18:42:00.329Z,69644.63
2022-11-27T18:57:02.160Z,69644.63
2022-11-27T23:57:43.318Z,69644.63
